メルボルン の空港の天気 - METARとTAF

メルボルン空港 ( YMML / MEL ) - オーストラリア ビクトリア州、Melbourne Airport
飛行場実況気象(Metar)
観測時間05/29 09:30 AEST (05/28 23:30 UTC)
風向・風速北 5m/s
視程10km以上
天気現象
なし
気温12℃
湿度71%
気圧1010hPa
METARYMML 282330Z 01009KT CAVOK 12/07 Q1010
過去の天気等 Google飛行場航空写真 Wunderground天気予報

過去48時間のMETAR

飛行場予報(TAF)
発表時間: 5/29 09:20 AEST (5/28 23:20 UTC)
予報対象時間: 29日10時 AEST ~ 30日16時 AEST
風向・風速北 5m/s
視程10km以上
全天の4割程度の雲 雲底高度 1070m
30日2時 AEST から
風向・風速北 5m/s
視程10km以上
全天の4割程度の雲 雲底高度 300m
30日10時 AEST から
風向・風速北東 5m/s
視程10km以上
天気現象弱い雨
全天の4割程度の雲 雲底高度 610m
全天の4割程度の雲 雲底高度 1070m
30日12時 AEST ~ 30日16時 AEST に一時的に
風向・風速東北東 6m/s
視程4000m
天気現象
全天の8割程度の雲 雲底高度 460m
TAF YMML 282320Z 2900/3006 01010KT 9999 SCT035
FM291600 01010KT 9999 SCT010
FM300000 04010KT 9999 -RA SCT020 SCT035
TEMPO 3002/3006 07012KT 4000 RA BKN015